createdAt,value
2019-06-01T00:01:24.761Z,20.62
2019-06-01T00:03:57.754Z,18.67
2019-06-01T00:06:30.207Z,20.75
2019-06-01T00:09:02.580Z,18.27
2019-06-01T00:11:36.503Z,17.23
2019-06-01T00:14:10.394Z,24.37
2019-06-01T00:16:44.090Z,21.75
2019-06-01T00:19:16.468Z,21.10
2019-06-01T00:21:49.448Z,20.08
2019-06-01T00:24:21.834Z,15.32
2019-06-01T00:26:54.209Z,16.65
2019-06-01T00:29:26.572Z,19.57
2019-06-01T00:31:58.951Z,29.30
2019-06-01T00:34:31.522Z,15.68
2019-06-01T00:37:04.299Z,20.95
2019-06-01T00:39:37.800Z,16.12
2019-06-01T00:42:10.372Z,20.82
2019-06-01T00:44:44.316Z,16.70
2019-06-01T00:47:16.553Z,25.00
2019-06-01T00:49:48.904Z,29.00
2019-06-01T00:52:21.093Z,29.23
2019-06-01T00:54:53.774Z,30.10
2019-06-01T00:57:26.043Z,35.15
2019-06-01T00:59:58.517Z,35.90
2019-06-01T01:02:31.193Z,34.08
2019-06-01T01:05:17.943Z,33.40
2019-06-01T01:07:51.119Z,32.90
2019-06-01T01:10:25.102Z,30.30
2019-06-01T01:13:11.607Z,40.88
2019-06-01T01:15:45.235Z,41.15
2019-06-01T01:18:17.576Z,32.25
2019-06-01T01:20:51.955Z,34.27
2019-06-01T01:23:24.369Z,40.35
2019-06-01T01:25:57.052Z,30.85
2019-06-01T01:28:29.523Z,31.35
2019-06-01T01:31:12.871Z,34.53
2019-06-01T01:33:35.803Z,28.12
2019-06-01T01:36:08.178Z,31.30
2019-06-01T01:38:40.445Z,36.00
2019-06-01T01:41:13.126Z,32.25
2019-06-01T01:43:45.764Z,29.05
2019-06-01T01:46:18.274Z,29.77
2019-06-01T01:48:50.449Z,31.05
2019-06-01T01:51:22.820Z,29.70
2019-06-01T01:53:56.592Z,47.03
2019-06-01T01:56:28.991Z,43.73
2019-06-01T01:59:04.273Z,29.82
2019-06-01T02:01:36.503Z,28.07
2019-06-01T02:04:09.076Z,35.23
2019-06-01T02:06:41.249Z,26.73
2019-06-01T02:09:13.624Z,24.20
2019-06-01T02:11:46.101Z,28.45
2019-06-01T02:14:19.088Z,30.05
2019-06-01T02:16:51.912Z,27.62
2019-06-01T02:19:24.333Z,40.55
2019-06-01T02:21:58.507Z,30.88
2019-06-01T02:24:30.840Z,33.78
2019-06-01T02:27:03.353Z,31.93
2019-06-01T02:29:35.664Z,31.57
2019-06-01T02:32:08.036Z,24.87
2019-06-01T02:34:40.718Z,28.38
2019-06-01T02:37:13.085Z,32.60
2019-06-01T02:39:45.465Z,29.98
2019-06-01T02:42:18.035Z,39.63
2019-06-01T02:44:50.102Z,36.73
2019-06-01T02:47:22.270Z,32.90
2019-06-01T02:49:55.617Z,32.20
2019-06-01T02:52:28.444Z,38.00
2019-06-01T02:55:02.240Z,34.70
2019-06-01T02:57:34.927Z,37.80
2019-06-01T03:00:08.287Z,36.13
2019-06-01T03:02:41.565Z,30.95
2019-06-01T03:05:14.605Z,36.48
2019-06-01T03:07:49.537Z,40.12
2019-06-01T03:10:22.113Z,40.33
2019-06-01T03:12:58.153Z,34.75
2019-06-01T03:15:32.692Z,28.85
2019-06-01T03:18:05.701Z,30.37
2019-06-01T03:20:40.001Z,25.00
2019-06-01T03:23:15.544Z,35.48
2019-06-01T03:25:51.444Z,24.07
2019-06-01T03:28:26.950Z,22.77
2019-06-01T03:31:01.105Z,22.48
2019-06-01T03:33:34.385Z,27.70
2019-06-01T03:36:09.074Z,31.85
2019-06-01T03:38:41.645Z,24.05
2019-06-01T03:41:13.924Z,33.30
2019-06-01T03:43:47.393Z,27.70
2019-06-01T03:46:19.998Z,23.25
2019-06-01T03:48:52.999Z,24.57
2019-06-01T03:51:25.767Z,22.75
2019-06-01T03:53:58.658Z,25.97
2019-06-01T03:56:30.814Z,28.60
2019-06-01T03:59:03.401Z,22.37
2019-06-01T04:01:37.238Z,23.18
2019-06-01T04:04:09.890Z,25.88
2019-06-01T04:06:42.453Z,26.02
2019-06-01T04:09:14.927Z,30.37
2019-06-01T04:11:47.300Z,21.30
2019-06-01T04:14:19.672Z,20.70
2019-06-01T04:16:52.253Z,23.67
2019-06-01T04:19:24.728Z,22.17
2019-06-01T04:21:57.607Z,21.60
2019-06-01T04:24:30.042Z,18.20
2019-06-01T04:27:04.047Z,17.75
2019-06-01T04:29:36.387Z,19.15
2019-06-01T04:32:08.956Z,21.60
2019-06-01T04:34:41.216Z,21.95
2019-06-01T04:37:13.893Z,16.27
2019-06-01T04:39:46.566Z,19.10
2019-06-01T04:42:19.860Z,23.75
2019-06-01T04:44:52.344Z,22.73
2019-06-01T04:47:25.010Z,23.10
2019-06-01T04:49:57.386Z,21.35
2019-06-01T04:52:29.962Z,24.30
2019-06-01T04:55:02.336Z,22.70
2019-06-01T04:57:34.714Z,22.77
2019-06-01T05:00:24.210Z,20.25
2019-06-01T05:02:45.186Z,24.87
2019-06-01T05:05:17.658Z,31.62
2019-06-01T05:07:50.030Z,18.37
2019-06-01T05:10:22.506Z,19.10
2019-06-01T05:12:54.776Z,19.17
2019-06-01T05:15:27.354Z,21.52
2019-06-01T05:17:59.823Z,22.67
2019-06-01T05:20:31.891Z,21.12
2019-06-01T05:23:04.779Z,22.22
2019-06-01T05:25:37.040Z,20.20
2019-06-01T05:28:11.119Z,17.05
2019-06-01T05:30:43.631Z,17.05
2019-06-01T05:33:30.937Z,15.58
2019-06-01T05:35:50.316Z,21.82
2019-06-01T05:38:22.895Z,19.60
2019-06-01T05:40:55.368Z,22.90
2019-06-01T05:43:27.949Z,18.50
2019-06-01T05:46:00.211Z,20.00
2019-06-01T05:48:32.691Z,18.55
2019-06-01T05:51:05.166Z,21.42
2019-06-01T05:53:37.991Z,23.40
2019-06-01T05:56:10.529Z,21.05
2019-06-01T05:58:42.995Z,19.95
2019-06-01T06:01:16.451Z,16.42
2019-06-01T06:03:49.257Z,22.15
2019-06-01T06:06:22.060Z,16.97
2019-06-01T06:08:54.428Z,16.60
2019-06-01T06:11:27.007Z,19.10
2019-06-01T06:13:59.588Z,20.15
2019-06-01T06:16:32.053Z,20.50
2019-06-01T06:19:04.638Z,23.02
2019-06-01T06:21:36.901Z,22.95
2019-06-01T06:24:09.066Z,16.93
2019-06-01T06:26:41.443Z,22.87
2019-06-01T06:29:14.698Z,26.80
2019-06-01T06:31:47.941Z,19.25
2019-06-01T06:34:21.576Z,16.52
2019-06-01T06:36:54.108Z,22.40
2019-06-01T06:39:26.581Z,15.50
2019-06-01T06:41:59.262Z,21.90
2019-06-01T06:44:31.548Z,20.37
2019-06-01T06:47:04.104Z,18.12
2019-06-01T06:49:36.581Z,21.20
2019-06-01T06:52:09.167Z,18.20
2019-06-01T06:54:41.839Z,14.68
2019-06-01T06:57:14.212Z,27.75
2019-06-01T06:59:46.788Z,16.57
2019-06-01T07:02:20.785Z,13.72
2019-06-01T07:04:53.072Z,14.83
2019-06-01T07:07:25.786Z,11.88
2019-06-01T07:09:58.254Z,15.08
2019-06-01T07:12:31.560Z,10.78
2019-06-01T07:15:04.600Z,19.00
2019-06-01T07:17:36.777Z,9.50
2019-06-01T07:20:09.761Z,14.28
2019-06-01T07:22:42.440Z,15.23
2019-06-01T07:25:14.827Z,16.70
2019-06-01T07:27:47.398Z,13.18
2019-06-01T07:30:20.145Z,10.72
2019-06-01T07:32:52.745Z,13.75
2019-06-01T07:35:26.364Z,16.73
2019-06-01T07:37:58.812Z,12.70
2019-06-01T07:40:31.387Z,21.75
2019-06-01T07:43:03.860Z,13.32
2019-06-01T07:45:36.347Z,15.32
2019-06-01T07:48:08.745Z,16.00
2019-06-01T07:50:40.972Z,12.90
2019-06-01T07:53:13.532Z,14.63
2019-06-01T07:55:45.716Z,16.40
2019-06-01T07:58:18.171Z,12.20
2019-06-01T08:00:50.676Z,16.48
2019-06-01T08:03:26.615Z,19.67
2019-06-01T08:05:57.768Z,17.30
2019-06-01T08:08:31.407Z,24.45
2019-06-01T08:11:03.947Z,13.75
2019-06-01T08:13:36.061Z,16.77
2019-06-01T08:16:08.381Z,21.35
2019-06-01T08:18:40.649Z,14.35
2019-06-01T08:21:13.126Z,15.25
2019-06-01T08:23:45.392Z,12.40
2019-06-01T08:26:19.986Z,8.55
2019-06-01T08:28:51.884Z,9.83
2019-06-01T08:31:24.570Z,13.62
2019-06-01T08:33:57.028Z,8.48
2019-06-01T08:36:29.588Z,8.33
2019-06-01T08:39:02.091Z,13.75
2019-06-01T08:41:35.889Z,10.88
2019-06-01T08:44:08.578Z,9.53
2019-06-01T08:46:41.040Z,11.33
2019-06-01T08:49:13.517Z,11.68
2019-06-01T08:51:45.833Z,9.03
2019-06-01T08:54:18.463Z,11.25
2019-06-01T08:56:50.952Z,7.62
2019-06-01T08:59:24.227Z,7.47
2019-06-01T09:01:56.854Z,11.48
2019-06-01T09:04:30.687Z,8.45
2019-06-01T09:07:02.880Z,7.85
2019-06-01T09:09:35.373Z,11.00
2019-06-01T09:12:07.832Z,5.83
2019-06-01T09:14:40.303Z,5.37
2019-06-01T09:17:12.684Z,9.03
2019-06-01T09:19:45.047Z,8.60
2019-06-01T09:22:17.543Z,29.27
2019-06-01T09:24:53.288Z,8.15
2019-06-01T09:27:24.008Z,9.58
2019-06-01T09:29:56.483Z,9.35
2019-06-01T09:32:30.060Z,8.53
2019-06-01T09:35:02.277Z,9.65
2019-06-01T09:37:35.050Z,8.78
2019-06-01T09:40:08.601Z,5.15
2019-06-01T09:42:40.804Z,14.58
2019-06-01T09:45:13.388Z,10.03
2019-06-01T09:47:45.760Z,10.15
2019-06-01T09:50:19.261Z,14.33
2019-06-01T09:52:51.825Z,16.57
2019-06-01T09:55:24.098Z,10.18
2019-06-01T09:57:56.772Z,7.08
2019-06-01T10:00:30.338Z,8.83
2019-06-01T10:03:02.955Z,7.75
2019-06-01T10:05:36.194Z,16.45
2019-06-01T10:08:08.723Z,11.50
2019-06-01T10:10:42.304Z,8.20
2019-06-01T10:13:14.496Z,11.88
2019-06-01T10:15:46.659Z,11.25
2019-06-01T10:18:19.229Z,10.03
2019-06-01T10:21:07.884Z,19.20
2019-06-01T10:23:40.361Z,13.13
2019-06-01T10:26:12.805Z,9.08
2019-06-01T10:28:45.414Z,8.30
2019-06-01T10:31:17.784Z,9.85
2019-06-01T10:33:51.677Z,8.43
2019-06-01T10:36:24.674Z,11.97
2019-06-01T10:38:57.965Z,11.40
2019-06-01T10:41:31.234Z,8.43
2019-06-01T10:44:03.637Z,14.38
2019-06-01T10:46:36.119Z,11.33
2019-06-01T10:49:08.480Z,11.08
2019-06-01T10:51:42.273Z,12.00
2019-06-01T10:54:16.099Z,5.78
2019-06-01T10:56:48.363Z,9.70
2019-06-01T10:59:20.936Z,9.93
2019-06-01T11:01:53.717Z,6.30
2019-06-01T11:04:25.995Z,8.60
2019-06-01T11:06:58.462Z,6.47
2019-06-01T11:09:30.859Z,6.80
2019-06-01T11:12:03.215Z,12.00
2019-06-01T11:14:35.586Z,8.90
2019-06-01T11:17:08.779Z,8.48
2019-06-01T11:19:42.069Z,7.65
2019-06-01T11:22:14.737Z,7.17
2019-06-01T11:24:47.006Z,9.25
2019-06-01T11:27:19.689Z,9.40
2019-06-01T11:29:53.184Z,9.48
2019-06-01T11:32:25.873Z,8.30
2019-06-01T11:34:58.239Z,10.32
2019-06-01T11:37:30.725Z,7.62
2019-06-01T11:40:04.107Z,8.43
2019-06-01T11:42:36.993Z,6.05
2019-06-01T11:45:09.982Z,10.23
2019-06-01T11:47:42.921Z,5.42
2019-06-01T11:50:16.262Z,11.95
2019-06-01T11:52:48.737Z,7.08
2019-06-01T11:55:21.324Z,10.95
2019-06-01T11:57:53.990Z,7.47
2019-06-01T12:00:26.671Z,9.53
2019-06-01T12:02:59.239Z,8.85
2019-06-01T12:05:31.616Z,12.23
2019-06-01T12:08:04.094Z,8.88
2019-06-01T12:10:36.720Z,5.90
2019-06-01T12:13:08.938Z,8.73
2019-06-01T12:15:42.278Z,7.35
2019-06-01T12:18:14.704Z,12.15
2019-06-01T12:20:48.006Z,11.43
2019-06-01T12:23:20.473Z,5.65
2019-06-01T12:25:52.845Z,8.45
2019-06-01T12:28:25.223Z,7.85
2019-06-01T12:30:57.593Z,7.28
2019-06-01T12:33:29.968Z,9.58
2019-06-01T12:36:02.337Z,10.85
2019-06-01T12:38:37.850Z,5.75
2019-06-01T12:41:10.145Z,6.25
2019-06-01T12:43:45.599Z,5.87
2019-06-01T12:46:18.065Z,7.28
2019-06-01T12:48:50.541Z,8.35
2019-06-01T12:51:23.018Z,6.08
2019-06-01T12:53:55.703Z,12.80
2019-06-01T12:56:28.064Z,7.25
2019-06-01T12:59:00.761Z,10.55
2019-06-01T13:01:33.233Z,8.60
2019-06-01T13:04:07.537Z,9.33
2019-06-01T13:06:40.716Z,12.75
2019-06-01T13:09:13.197Z,9.50
2019-06-01T13:11:45.677Z,5.87
2019-06-01T13:14:18.156Z,6.45
2019-06-01T13:17:06.270Z,8.28
2019-06-01T13:19:24.428Z,10.13
2019-06-01T13:21:56.801Z,6.12
2019-06-01T13:24:29.284Z,7.90
2019-06-01T13:27:01.569Z,7.37
2019-06-01T13:29:34.029Z,6.87
2019-06-01T13:32:06.495Z,9.40
2019-06-01T13:34:38.984Z,10.82
2019-06-01T13:37:11.648Z,11.50
2019-06-01T13:39:45.165Z,13.90
2019-06-01T13:42:18.441Z,7.75
2019-06-01T13:44:51.630Z,7.55
2019-06-01T13:47:24.001Z,11.53
2019-06-01T13:49:57.400Z,6.90
2019-06-01T13:52:29.771Z,10.45
2019-06-01T13:55:02.625Z,7.80
2019-06-01T13:57:35.128Z,7.20
2019-06-01T14:00:08.725Z,5.58
2019-06-01T14:02:41.313Z,11.80
2019-06-01T14:05:14.039Z,9.38
2019-06-01T14:07:47.563Z,6.97
2019-06-01T14:10:21.185Z,13.15
2019-06-01T14:12:53.593Z,12.23
2019-06-01T14:15:26.245Z,8.43
2019-06-01T14:17:58.721Z,10.15
2019-06-01T14:20:31.186Z,7.92
2019-06-01T14:23:03.773Z,10.55
2019-06-01T14:25:36.400Z,13.05
2019-06-01T14:28:08.948Z,13.15
2019-06-01T14:30:41.288Z,16.37
2019-06-01T14:33:13.869Z,10.80
2019-06-01T14:35:46.645Z,10.40
2019-06-01T14:38:18.914Z,8.20
2019-06-01T14:40:52.380Z,13.90
2019-06-01T14:43:25.198Z,7.97
2019-06-01T14:45:58.289Z,10.25
2019-06-01T14:48:30.759Z,8.20
2019-06-01T14:51:03.232Z,7.33
2019-06-01T14:53:35.809Z,9.95
2019-06-01T14:56:08.216Z,14.00
2019-06-01T15:16:15.629Z,21.03
2019-06-01T15:18:55.950Z,16.30
2019-06-01T15:41:38.001Z,12.95
2019-06-01T16:14:38.606Z,18.35
2019-06-01T16:17:11.078Z,19.17
2019-06-01T16:19:43.659Z,23.40
2019-06-01T16:22:16.229Z,13.45
2019-06-01T16:24:48.811Z,20.48
2019-06-01T16:27:21.387Z,22.90
2019-06-01T16:29:54.594Z,23.85
2019-06-01T16:32:27.055Z,17.60
2019-06-01T16:35:01.021Z,17.10
2019-06-01T16:37:33.840Z,20.62
2019-06-01T16:40:10.938Z,22.82
2019-06-01T16:42:43.810Z,17.90
2019-06-01T16:45:16.782Z,13.93
2019-06-01T16:47:50.096Z,22.67
2019-06-01T16:50:22.974Z,20.32
2019-06-01T16:52:55.865Z,21.27
2019-06-01T16:55:31.395Z,26.25
2019-06-01T16:58:03.599Z,23.22
2019-06-01T17:00:36.350Z,24.95
2019-06-01T17:03:11.312Z,19.17
2019-06-01T17:05:43.551Z,26.40
2019-06-01T17:08:15.924Z,25.85
2019-06-01T17:10:48.708Z,22.52
2019-06-01T17:13:20.974Z,18.57
2019-06-01T17:15:53.244Z,18.12
2019-06-01T17:18:25.616Z,27.42
2019-06-01T17:20:59.194Z,28.95
2019-06-01T17:23:33.209Z,28.20
2019-06-01T17:26:07.589Z,23.32
2019-06-01T17:28:40.638Z,27.32
2019-06-01T17:31:13.323Z,27.30
2019-06-01T17:33:45.890Z,30.02
2019-06-01T17:36:18.570Z,34.18
2019-06-01T17:38:50.942Z,27.73
2019-06-01T17:41:23.516Z,22.62
2019-06-01T17:43:55.890Z,26.48
2019-06-01T17:46:28.156Z,31.60
2019-06-01T17:49:00.528Z,31.45
2019-06-01T17:51:33.009Z,33.95
2019-06-01T17:54:07.997Z,31.25
2019-06-01T17:56:39.896Z,33.45
2019-06-01T17:59:12.478Z,32.83
2019-06-01T18:01:45.343Z,32.75
2019-06-01T18:04:17.738Z,32.50
2019-06-01T18:06:50.203Z,28.62
2019-06-01T18:09:22.803Z,27.27
2019-06-01T18:11:55.653Z,28.05
2019-06-01T18:14:28.038Z,25.65
2019-06-01T18:17:00.621Z,28.45
2019-06-01T18:19:33.090Z,22.75
2019-06-01T18:22:06.723Z,31.68
2019-06-01T18:24:39.168Z,19.52
2019-06-01T18:27:12.665Z,21.90
2019-06-01T18:29:48.733Z,28.23
2019-06-01T18:32:19.151Z,25.15
2019-06-01T18:34:51.724Z,22.42
2019-06-01T18:37:26.073Z,24.30
2019-06-01T18:39:58.723Z,25.45
2019-06-01T18:42:31.480Z,24.92
2019-06-01T18:45:06.060Z,24.35
2019-06-01T18:47:38.917Z,21.25
2019-06-01T18:50:16.981Z,30.55
2019-06-01T18:52:47.139Z,25.77
2019-06-01T18:55:19.826Z,23.35
2019-06-01T18:57:55.668Z,30.62
2019-06-01T19:00:28.139Z,28.20
2019-06-01T19:03:00.558Z,32.75
2019-06-01T19:05:32.990Z,40.40
2019-06-01T19:08:05.670Z,42.45
2019-06-01T19:10:38.551Z,44.93
2019-06-01T19:13:11.705Z,31.82
2019-06-01T19:15:44.314Z,34.13
2019-06-01T19:18:17.230Z,32.17
2019-06-01T19:20:49.677Z,34.92
2019-06-01T19:23:23.038Z,26.45
2019-06-01T19:25:55.559Z,21.55
2019-06-01T19:28:28.022Z,23.83
2019-06-01T19:31:00.409Z,20.37
2019-06-01T19:33:33.172Z,25.25
2019-06-01T19:36:06.925Z,23.47
2019-06-01T19:38:40.869Z,17.85
2019-06-01T19:41:13.485Z,17.70
2019-06-01T19:43:46.042Z,17.15
2019-06-01T19:46:18.723Z,20.32
2019-06-01T19:48:51.078Z,18.82
2019-06-01T19:51:23.562Z,19.67
2019-06-01T19:53:57.507Z,17.60
2019-06-01T19:56:29.756Z,22.50
2019-06-01T19:59:02.221Z,29.65
2019-06-01T20:01:35.637Z,73.07
2019-06-01T20:04:08.294Z,77.17
2019-06-01T20:06:40.942Z,64.22
2019-06-01T20:09:13.245Z,57.20
2019-06-01T20:12:01.011Z,52.03
2019-06-01T20:14:19.420Z,73.45
2019-06-01T20:16:53.126Z,44.90
2019-06-01T20:19:26.829Z,38.65
2019-06-01T20:21:59.253Z,23.57
2019-06-01T20:24:31.851Z,27.13
2019-06-01T20:27:04.570Z,40.05
2019-06-01T20:29:36.932Z,28.32
2019-06-01T20:32:09.243Z,19.35
2019-06-01T20:34:41.622Z,12.82
2019-06-01T20:37:14.351Z,101.55
2019-06-01T20:39:46.826Z,17.95
2019-06-01T20:42:26.428Z,11.35
2019-06-01T20:44:53.408Z,13.62
2019-06-01T20:47:25.884Z,9.85
2019-06-01T20:49:58.356Z,14.30
2019-06-01T20:52:30.938Z,13.85
2019-06-01T20:55:04.953Z,14.38
2019-06-01T20:57:37.936Z,12.73
2019-06-01T21:00:11.538Z,11.65
2019-06-01T21:02:46.161Z,13.72
2019-06-01T21:05:19.868Z,10.78
2019-06-01T21:07:56.716Z,10.20
2019-06-01T21:10:26.854Z,7.25
2019-06-01T21:12:59.233Z,9.60
2019-06-01T21:15:32.115Z,7.53
2019-06-01T21:18:04.993Z,13.32
2019-06-01T21:20:37.479Z,11.18
2019-06-01T21:23:10.045Z,8.75
2019-06-01T21:25:42.212Z,10.40
2019-06-01T21:28:16.377Z,10.03
2019-06-01T21:30:48.802Z,10.48
2019-06-01T21:33:24.912Z,10.10
2019-06-01T21:35:55.401Z,17.67
2019-06-01T21:38:27.977Z,7.58
2019-06-01T21:41:01.684Z,5.92
2019-06-01T21:43:35.528Z,6.05
2019-06-01T21:46:08.054Z,7.90
2019-06-01T21:48:40.318Z,10.95
2019-06-01T21:51:12.689Z,8.45
2019-06-01T21:53:46.589Z,11.25
2019-06-01T21:56:20.661Z,8.33
2019-06-01T21:58:52.778Z,5.70
2019-06-01T22:01:26.873Z,7.15
2019-06-01T22:03:59.774Z,10.03
2019-06-01T22:06:32.145Z,7.53
2019-06-01T22:09:06.472Z,6.45
2019-06-01T22:11:38.733Z,11.53
2019-06-01T22:14:11.208Z,15.75
2019-06-01T22:16:43.476Z,9.68
2019-06-01T22:19:16.056Z,12.07
2019-06-01T22:21:48.636Z,9.68
2019-06-01T22:24:21.711Z,13.30
2019-06-01T22:26:53.987Z,15.75
2019-06-01T22:29:26.510Z,15.93
2019-06-01T22:31:59.041Z,12.53
2019-06-01T22:34:31.515Z,13.05
2019-06-01T22:37:04.087Z,13.08
2019-06-01T22:39:36.368Z,10.25
2019-06-01T22:42:09.147Z,11.95
2019-06-01T22:44:41.720Z,13.75
2019-06-01T22:47:13.989Z,11.68
2019-06-01T22:49:46.464Z,11.28
2019-06-01T22:52:18.835Z,6.58
2019-06-01T22:54:51.831Z,14.53
2019-06-01T22:57:26.575Z,6.67
2019-06-01T22:59:58.925Z,9.15
2019-06-01T23:02:32.020Z,11.25
2019-06-01T23:05:05.183Z,9.18
2019-06-01T23:07:37.372Z,8.53
2019-06-01T23:10:09.943Z,9.48
2019-06-01T23:12:42.521Z,5.80
2019-06-01T23:15:14.895Z,7.30
2019-06-01T23:17:47.373Z,6.85
2019-06-01T23:20:19.945Z,7.92
2019-06-01T23:22:52.322Z,6.35
2019-06-01T23:25:24.587Z,9.45
2019-06-01T23:27:57.157Z,7.55
2019-06-01T23:30:30.284Z,10.72
2019-06-01T23:33:02.629Z,18.20
2019-06-01T23:35:35.099Z,15.40
2019-06-01T23:38:07.671Z,14.30
2019-06-01T23:40:40.966Z,16.48
2019-06-01T23:43:13.546Z,13.25
2019-06-01T23:45:45.711Z,12.93
2019-06-01T23:48:18.183Z,9.60
2019-06-01T23:50:50.659Z,11.15
2019-06-01T23:53:23.522Z,8.73
2019-06-01T23:55:55.914Z,6.85
2019-06-01T23:58:28.284Z,7.28
